sensor_id;sensor_type;location;lat;lon;timestamp;P1;durP1;ratioP1;P2;durP2;ratioP2
67546;SDS011;54381;53.516;49.424;2022-10-31T00:00:44;1.95;;;0.85;;
67546;SDS011;54381;53.516;49.424;2022-10-31T00:03:11;2.78;;;1.05;;
67546;SDS011;54381;53.516;49.424;2022-10-31T00:05:41;3.30;;;1.00;;
67546;SDS011;54381;53.516;49.424;2022-10-31T00:08:14;2.28;;;0.90;;
67546;SDS011;54381;53.516;49.424;2022-10-31T00:10:42;2.20;;;0.88;;
67546;SDS011;54381;53.516;49.424;2022-10-31T00:13:09;3.30;;;0.80;;
67546;SDS011;54381;53.516;49.424;2022-10-31T00:15:37;4.03;;;0.98;;
67546;SDS011;54381;53.516;49.424;2022-10-31T00:18:05;4.72;;;0.65;;
67546;SDS011;54381;53.516;49.424;2022-10-31T00:20:33;2.72;;;0.70;;
67546;SDS011;54381;53.516;49.424;2022-10-31T00:23:00;6.28;;;0.98;;
67546;SDS011;54381;53.516;49.424;2022-10-31T00:25:27;4.32;;;0.63;;
67546;SDS011;54381;53.516;49.424;2022-10-31T00:27:54;4.50;;;0.70;;
67546;SDS011;54381;53.516;49.424;2022-10-31T00:30:21;2.25;;;0.57;;
67546;SDS011;54381;53.516;49.424;2022-10-31T00:32:47;1.75;;;0.60;;
67546;SDS011;54381;53.516;49.424;2022-10-31T00:35:13;1.52;;;0.45;;
67546;SDS011;54381;53.516;49.424;2022-10-31T00:37:39;3.78;;;0.60;;
67546;SDS011;54381;53.516;49.424;2022-10-31T00:40:05;2.75;;;0.60;;
67546;SDS011;54381;53.516;49.424;2022-10-31T00:42:32;3.10;;;0.70;;
67546;SDS011;54381;53.516;49.424;2022-10-31T00:44:58;4.18;;;0.40;;
67546;SDS011;54381;53.516;49.424;2022-10-31T00:47:24;2.47;;;0.50;;
67546;SDS011;54381;53.516;49.424;2022-10-31T00:49:50;1.70;;;0.60;;
67546;SDS011;54381;53.516;49.424;2022-10-31T00:52:16;4.07;;;0.40;;
67546;SDS011;54381;53.516;49.424;2022-10-31T00:54:42;1.33;;;0.40;;
67546;SDS011;54381;53.516;49.424;2022-10-31T00:57:08;3.05;;;0.60;;
67546;SDS011;54381;53.516;49.424;2022-10-31T00:59:34;2.78;;;1.10;;
67546;SDS011;54381;53.516;49.424;2022-10-31T01:02:00;3.22;;;0.90;;
67546;SDS011;54381;53.516;49.424;2022-10-31T01:04:26;3.03;;;0.88;;
67546;SDS011;54381;53.516;49.424;2022-10-31T01:06:53;4.53;;;1.33;;
67546;SDS011;54381;53.516;49.424;2022-10-31T01:09:39;5.32;;;1.27;;
67546;SDS011;54381;53.516;49.424;2022-10-31T01:15:11;4.00;;;1.40;;
67546;SDS011;54381;53.516;49.424;2022-10-31T01:20:40;1.88;;;0.60;;
67546;SDS011;54381;53.516;49.424;2022-10-31T01:23:25;1.10;;;0.80;;
67546;SDS011;54381;53.516;49.424;2022-10-31T01:26:11;1.17;;;0.45;;
67546;SDS011;54381;53.516;49.424;2022-10-31T01:28:57;3.42;;;0.60;;
67546;SDS011;54381;53.516;49.424;2022-10-31T01:34:27;1.58;;;0.45;;
67546;SDS011;54381;53.516;49.424;2022-10-31T01:37:12;0.43;;;0.30;;
67546;SDS011;54381;53.516;49.424;2022-10-31T01:39:38;0.40;;;0.40;;
67546;SDS011;54381;53.516;49.424;2022-10-31T01:42:04;2.45;;;0.60;;
67546;SDS011;54381;53.516;49.424;2022-10-31T01:55:44;1.33;;;0.50;;
67546;SDS011;54381;53.516;49.424;2022-10-31T01:58:13;2.53;;;0.45;;
67546;SDS011;54381;53.516;49.424;2022-10-31T02:00:43;0.88;;;0.50;;
67546;SDS011;54381;53.516;49.424;2022-10-31T02:03:12;1.50;;;0.70;;
67546;SDS011;54381;53.516;49.424;2022-10-31T02:05:57;2.53;;;0.90;;
67546;SDS011;54381;53.516;49.424;2022-10-31T02:08:41;4.30;;;1.52;;
67546;SDS011;54381;53.516;49.424;2022-10-31T02:14:11;4.57;;;0.80;;
67546;SDS011;54381;53.516;49.424;2022-10-31T03:07:03;1.48;;;0.88;;
67546;SDS011;54381;53.516;49.424;2022-10-31T03:13:01;1.75;;;0.40;;
67546;SDS011;54381;53.516;49.424;2022-10-31T03:15:46;1.45;;;0.60;;
67546;SDS011;54381;53.516;49.424;2022-10-31T03:18:34;1.17;;;0.55;;
67546;SDS011;54381;53.516;49.424;2022-10-31T03:21:16;2.55;;;0.57;;
67546;SDS011;54381;53.516;49.424;2022-10-31T03:26:16;2.97;;;0.40;;
67546;SDS011;54381;53.516;49.424;2022-10-31T03:28:44;3.10;;;0.60;;
67546;SDS011;54381;53.516;49.424;2022-10-31T03:31:15;7.30;;;0.73;;
67546;SDS011;54381;53.516;49.424;2022-10-31T03:33:44;2.95;;;0.47;;
67546;SDS011;54381;53.516;49.424;2022-10-31T03:36:12;3.70;;;0.50;;
67546;SDS011;54381;53.516;49.424;2022-10-31T03:38:41;8.20;;;0.80;;
67546;SDS011;54381;53.516;49.424;2022-10-31T03:41:11;3.30;;;0.80;;
67546;SDS011;54381;53.516;49.424;2022-10-31T03:43:45;4.15;;;0.68;;
67546;SDS011;54381;53.516;49.424;2022-10-31T03:46:17;2.35;;;0.68;;
67546;SDS011;54381;53.516;49.424;2022-10-31T03:48:44;3.08;;;0.60;;
67546;SDS011;54381;53.516;49.424;2022-10-31T03:54:08;6.28;;;1.00;;
67546;SDS011;54381;53.516;49.424;2022-10-31T04:02:39;3.40;;;0.70;;
67546;SDS011;54381;53.516;49.424;2022-10-31T04:05:09;5.15;;;0.60;;
67546;SDS011;54381;53.516;49.424;2022-10-31T04:07:39;2.17;;;0.70;;
67546;SDS011;54381;53.516;49.424;2022-10-31T04:10:11;3.45;;;0.85;;
67546;SDS011;54381;53.516;49.424;2022-10-31T04:12:40;9.13;;;1.60;;
67546;SDS011;54381;53.516;49.424;2022-10-31T04:15:10;2.88;;;1.30;;
67546;SDS011;54381;53.516;49.424;2022-10-31T04:17:38;3.35;;;1.23;;
67546;SDS011;54381;53.516;49.424;2022-10-31T04:20:07;4.97;;;1.67;;
67546;SDS011;54381;53.516;49.424;2022-10-31T04:22:34;4.38;;;1.42;;
67546;SDS011;54381;53.516;49.424;2022-10-31T04:25:00;3.22;;;1.55;;
67546;SDS011;54381;53.516;49.424;2022-10-31T04:27:26;5.60;;;1.50;;
67546;SDS011;54381;53.516;49.424;2022-10-31T04:29:53;3.88;;;1.52;;
67546;SDS011;54381;53.516;49.424;2022-10-31T04:32:19;12.25;;;2.00;;
67546;SDS011;54381;53.516;49.424;2022-10-31T04:34:45;4.35;;;1.58;;
67546;SDS011;54381;53.516;49.424;2022-10-31T04:37:11;11.68;;;2.65;;
67546;SDS011;54381;53.516;49.424;2022-10-31T04:39:40;4.45;;;1.60;;
67546;SDS011;54381;53.516;49.424;2022-10-31T04:42:06;4.05;;;1.50;;
67546;SDS011;54381;53.516;49.424;2022-10-31T04:44:32;10.95;;;2.00;;
67546;SDS011;54381;53.516;49.424;2022-10-31T04:46:58;2.13;;;1.00;;
67546;SDS011;54381;53.516;49.424;2022-10-31T04:49:24;2.20;;;0.80;;
67546;SDS011;54381;53.516;49.424;2022-10-31T04:51:50;4.07;;;0.90;;
67546;SDS011;54381;53.516;49.424;2022-10-31T04:54:16;3.25;;;1.02;;
67546;SDS011;54381;53.516;49.424;2022-10-31T04:56:42;1.92;;;1.10;;
67546;SDS011;54381;53.516;49.424;2022-10-31T04:59:08;1.63;;;1.08;;
67546;SDS011;54381;53.516;49.424;2022-10-31T05:01:34;1.83;;;0.60;;
67546;SDS011;54381;53.516;49.424;2022-10-31T05:04:01;5.57;;;0.63;;
67546;SDS011;54381;53.516;49.424;2022-10-31T05:06:27;2.00;;;0.60;;
67546;SDS011;54381;53.516;49.424;2022-10-31T05:08:53;4.35;;;0.85;;
67546;SDS011;54381;53.516;49.424;2022-10-31T05:11:19;1.10;;;0.55;;
67546;SDS011;54381;53.516;49.424;2022-10-31T05:13:45;2.05;;;0.80;;
67546;SDS011;54381;53.516;49.424;2022-10-31T05:16:11;5.38;;;1.58;;
67546;SDS011;54381;53.516;49.424;2022-10-31T05:18:37;3.85;;;1.10;;
67546;SDS011;54381;53.516;49.424;2022-10-31T05:21:03;1.27;;;0.95;;
67546;SDS011;54381;53.516;49.424;2022-10-31T05:23:30;2.92;;;0.90;;
67546;SDS011;54381;53.516;49.424;2022-10-31T05:25:56;1.60;;;0.80;;
67546;SDS011;54381;53.516;49.424;2022-10-31T05:28:22;5.93;;;0.90;;
67546;SDS011;54381;53.516;49.424;2022-10-31T05:30:49;1.90;;;0.90;;
67546;SDS011;54381;53.516;49.424;2022-10-31T05:33:18;3.63;;;1.90;;
67546;SDS011;54381;53.516;49.424;2022-10-31T05:35:44;4.65;;;1.45;;
67546;SDS011;54381;53.516;49.424;2022-10-31T05:38:10;5.95;;;1.95;;
67546;SDS011;54381;53.516;49.424;2022-10-31T05:40:36;2.47;;;0.98;;
67546;SDS011;54381;53.516;49.424;2022-10-31T05:43:03;3.17;;;0.88;;
67546;SDS011;54381;53.516;49.424;2022-10-31T05:45:29;2.22;;;0.93;;
67546;SDS011;54381;53.516;49.424;2022-10-31T05:47:56;5.05;;;1.00;;
67546;SDS011;54381;53.516;49.424;2022-10-31T05:50:24;3.70;;;1.02;;
67546;SDS011;54381;53.516;49.424;2022-10-31T05:52:59;0.88;;;0.60;;
67546;SDS011;54381;53.516;49.424;2022-10-31T05:55:26;1.17;;;0.63;;
67546;SDS011;54381;53.516;49.424;2022-10-31T05:57:53;3.22;;;0.95;;
67546;SDS011;54381;53.516;49.424;2022-10-31T06:00:20;2.47;;;0.80;;
67546;SDS011;54381;53.516;49.424;2022-10-31T06:02:47;3.88;;;0.80;;
67546;SDS011;54381;53.516;49.424;2022-10-31T06:05:14;5.82;;;0.70;;
67546;SDS011;54381;53.516;49.424;2022-10-31T06:07:41;2.50;;;0.68;;
67546;SDS011;54381;53.516;49.424;2022-10-31T06:10:08;1.33;;;0.60;;
67546;SDS011;54381;53.516;49.424;2022-10-31T06:12:35;1.50;;;0.63;;
67546;SDS011;54381;53.516;49.424;2022-10-31T06:15:06;4.00;;;0.70;;
67546;SDS011;54381;53.516;49.424;2022-10-31T06:17:34;4.60;;;0.70;;
67546;SDS011;54381;53.516;49.424;2022-10-31T06:20:00;5.72;;;0.98;;
67546;SDS011;54381;53.516;49.424;2022-10-31T06:22:27;1.38;;;0.70;;
67546;SDS011;54381;53.516;49.424;2022-10-31T06:24:53;1.48;;;0.47;;
67546;SDS011;54381;53.516;49.424;2022-10-31T06:27:19;0.65;;;0.40;;
67546;SDS011;54381;53.516;49.424;2022-10-31T06:29:46;4.50;;;0.60;;
67546;SDS011;54381;53.516;49.424;2022-10-31T06:32:12;0.85;;;0.40;;
67546;SDS011;54381;53.516;49.424;2022-10-31T06:34:39;4.30;;;1.27;;
67546;SDS011;54381;53.516;49.424;2022-10-31T06:37:06;0.82;;;0.65;;
67546;SDS011;54381;53.516;49.424;2022-10-31T06:39:33;2.53;;;0.50;;
67546;SDS011;54381;53.516;49.424;2022-10-31T06:42:00;4.80;;;0.60;;
67546;SDS011;54381;53.516;49.424;2022-10-31T06:44:26;0.95;;;0.50;;
67546;SDS011;54381;53.516;49.424;2022-10-31T06:46:52;3.22;;;1.00;;
67546;SDS011;54381;53.516;49.424;2022-10-31T06:49:19;3.80;;;0.60;;
67546;SDS011;54381;53.516;49.424;2022-10-31T06:51:48;3.08;;;1.00;;
67546;SDS011;54381;53.516;49.424;2022-10-31T06:54:14;2.70;;;0.70;;
67546;SDS011;54381;53.516;49.424;2022-10-31T06:56:41;3.75;;;1.40;;
67546;SDS011;54381;53.516;49.424;2022-10-31T06:59:07;2.15;;;1.25;;
67546;SDS011;54381;53.516;49.424;2022-10-31T07:01:33;4.75;;;1.25;;
67546;SDS011;54381;53.516;49.424;2022-10-31T07:03:59;1.63;;;0.98;;
67546;SDS011;54381;53.516;49.424;2022-10-31T07:06:26;5.55;;;1.17;;
67546;SDS011;54381;53.516;49.424;2022-10-31T07:08:52;2.72;;;1.38;;
67546;SDS011;54381;53.516;49.424;2022-10-31T07:11:18;4.15;;;0.98;;
67546;SDS011;54381;53.516;49.424;2022-10-31T07:13:44;2.60;;;1.27;;
67546;SDS011;54381;53.516;49.424;2022-10-31T07:16:10;5.38;;;1.60;;
67546;SDS011;54381;53.516;49.424;2022-10-31T07:18:38;7.88;;;2.30;;
67546;SDS011;54381;53.516;49.424;2022-10-31T07:21:04;1.40;;;0.77;;
67546;SDS011;54381;53.516;49.424;2022-10-31T07:23:31;3.47;;;1.00;;
67546;SDS011;54381;53.516;49.424;2022-10-31T07:25:57;4.57;;;1.20;;
67546;SDS011;54381;53.516;49.424;2022-10-31T07:28:24;1.30;;;0.63;;
67546;SDS011;54381;53.516;49.424;2022-10-31T07:30:52;5.07;;;0.90;;
67546;SDS011;54381;53.516;49.424;2022-10-31T07:33:19;2.00;;;0.63;;
67546;SDS011;54381;53.516;49.424;2022-10-31T07:35:48;6.22;;;0.85;;
67546;SDS011;54381;53.516;49.424;2022-10-31T07:38:14;2.05;;;0.90;;
67546;SDS011;54381;53.516;49.424;2022-10-31T07:40:41;2.88;;;1.00;;
67546;SDS011;54381;53.516;49.424;2022-10-31T07:43:08;5.78;;;1.75;;
67546;SDS011;54381;53.516;49.424;2022-10-31T07:45:36;3.35;;;1.15;;
67546;SDS011;54381;53.516;49.424;2022-10-31T07:48:02;2.55;;;1.15;;
67546;SDS011;54381;53.516;49.424;2022-10-31T07:50:30;5.82;;;1.20;;
67546;SDS011;54381;53.516;49.424;2022-10-31T07:53:06;2.58;;;0.80;;
67546;SDS011;54381;53.516;49.424;2022-10-31T07:55:33;1.75;;;0.75;;
67546;SDS011;54381;53.516;49.424;2022-10-31T07:58:03;1.83;;;0.70;;
67546;SDS011;54381;53.516;49.424;2022-10-31T08:00:35;3.13;;;0.88;;
67546;SDS011;54381;53.516;49.424;2022-10-31T08:03:05;8.10;;;1.55;;
67546;SDS011;54381;53.516;49.424;2022-10-31T08:05:33;4.97;;;0.80;;
67546;SDS011;54381;53.516;49.424;2022-10-31T08:08:00;1.77;;;0.80;;
67546;SDS011;54381;53.516;49.424;2022-10-31T08:10:27;2.33;;;0.85;;
67546;SDS011;54381;53.516;49.424;2022-10-31T08:12:57;5.32;;;1.10;;
67546;SDS011;54381;53.516;49.424;2022-10-31T08:15:25;3.63;;;0.80;;
67546;SDS011;54381;53.516;49.424;2022-10-31T08:17:51;4.32;;;0.93;;
67546;SDS011;54381;53.516;49.424;2022-10-31T08:20:17;3.10;;;0.98;;
67546;SDS011;54381;53.516;49.424;2022-10-31T08:22:52;5.05;;;0.95;;
67546;SDS011;54381;53.516;49.424;2022-10-31T08:25:22;3.20;;;0.88;;
67546;SDS011;54381;53.516;49.424;2022-10-31T08:27:54;3.05;;;1.20;;
67546;SDS011;54381;53.516;49.424;2022-10-31T08:30:22;6.72;;;1.13;;
67546;SDS011;54381;53.516;49.424;2022-10-31T08:32:57;14.25;;;1.30;;
67546;SDS011;54381;53.516;49.424;2022-10-31T08:35:28;1.80;;;0.90;;
67546;SDS011;54381;53.516;49.424;2022-10-31T08:37:54;4.50;;;0.90;;
67546;SDS011;54381;53.516;49.424;2022-10-31T08:40:21;3.58;;;0.85;;
67546;SDS011;54381;53.516;49.424;2022-10-31T08:42:58;5.32;;;1.10;;
67546;SDS011;54381;53.516;49.424;2022-10-31T08:45:29;1.95;;;1.00;;
67546;SDS011;54381;53.516;49.424;2022-10-31T08:47:56;13.75;;;1.05;;
67546;SDS011;54381;53.516;49.424;2022-10-31T08:50:27;12.57;;;1.50;;
67546;SDS011;54381;53.516;49.424;2022-10-31T08:52:59;5.90;;;1.15;;
67546;SDS011;54381;53.516;49.424;2022-10-31T08:55:26;9.50;;;1.75;;
67546;SDS011;54381;53.516;49.424;2022-10-31T08:57:56;4.75;;;1.20;;
67546;SDS011;54381;53.516;49.424;2022-10-31T09:00:22;2.70;;;1.10;;
67546;SDS011;54381;53.516;49.424;2022-10-31T09:02:56;4.63;;;1.05;;
67546;SDS011;54381;53.516;49.424;2022-10-31T09:05:26;5.93;;;0.98;;
67546;SDS011;54381;53.516;49.424;2022-10-31T09:07:56;4.60;;;0.60;;
67546;SDS011;54381;53.516;49.424;2022-10-31T09:10:24;5.35;;;0.60;;
67546;SDS011;54381;53.516;49.424;2022-10-31T09:12:58;5.95;;;0.85;;
67546;SDS011;54381;53.516;49.424;2022-10-31T09:15:32;3.67;;;0.50;;
67546;SDS011;54381;53.516;49.424;2022-10-31T09:18:02;5.80;;;0.70;;
67546;SDS011;54381;53.516;49.424;2022-10-31T09:20:28;7.50;;;0.80;;
67546;SDS011;54381;53.516;49.424;2022-10-31T09:22:56;1.15;;;0.52;;
67546;SDS011;54381;53.516;49.424;2022-10-31T09:25:24;11.18;;;1.38;;
67546;SDS011;54381;53.516;49.424;2022-10-31T09:27:54;5.43;;;1.33;;
67546;SDS011;54381;53.516;49.424;2022-10-31T09:30:24;6.53;;;1.20;;
67546;SDS011;54381;53.516;49.424;2022-10-31T09:32:54;3.97;;;1.33;;
67546;SDS011;54381;53.516;49.424;2022-10-31T09:35:24;6.00;;;1.35;;
67546;SDS011;54381;53.516;49.424;2022-10-31T09:37:57;5.72;;;1.00;;
67546;SDS011;54381;53.516;49.424;2022-10-31T09:40:38;11.27;;;1.02;;
67546;SDS011;54381;53.516;49.424;2022-10-31T09:51:20;1.67;;;0.98;;
67546;SDS011;54381;53.516;49.424;2022-10-31T09:56:25;7.93;;;1.00;;
67546;SDS011;54381;53.516;49.424;2022-10-31T09:58:54;4.07;;;1.20;;
67546;SDS011;54381;53.516;49.424;2022-10-31T10:01:39;12.13;;;0.90;;
67546;SDS011;54381;53.516;49.424;2022-10-31T10:04:28;9.05;;;0.98;;
67546;SDS011;54381;53.516;49.424;2022-10-31T10:06:59;3.28;;;0.60;;
67546;SDS011;54381;53.516;49.424;2022-10-31T10:09:31;2.22;;;0.57;;
67546;SDS011;54381;53.516;49.424;2022-10-31T10:14:46;2.03;;;0.82;;
67546;SDS011;54381;53.516;49.424;2022-10-31T10:17:27;4.53;;;0.60;;
67546;SDS011;54381;53.516;49.424;2022-10-31T10:25:41;4.30;;;0.50;;
67546;SDS011;54381;53.516;49.424;2022-10-31T10:28:17;24.75;;;1.90;;
67546;SDS011;54381;53.516;49.424;2022-10-31T10:41:51;4.97;;;1.38;;
67546;SDS011;54381;53.516;49.424;2022-10-31T10:44:37;5.45;;;1.33;;
67546;SDS011;54381;53.516;49.424;2022-10-31T10:47:26;21.98;;;2.03;;
67546;SDS011;54381;53.516;49.424;2022-10-31T10:50:10;12.98;;;1.95;;
67546;SDS011;54381;53.516;49.424;2022-10-31T10:52:46;9.80;;;1.50;;
67546;SDS011;54381;53.516;49.424;2022-10-31T10:55:56;13.45;;;2.13;;
67546;SDS011;54381;53.516;49.424;2022-10-31T10:58:40;4.55;;;1.92;;
67546;SDS011;54381;53.516;49.424;2022-10-31T11:01:16;5.45;;;1.30;;
67546;SDS011;54381;53.516;49.424;2022-10-31T11:03:42;2.92;;;1.73;;
67546;SDS011;54381;53.516;49.424;2022-10-31T11:06:18;7.95;;;2.00;;
67546;SDS011;54381;53.516;49.424;2022-10-31T11:08:51;33.13;;;1.65;;
67546;SDS011;54381;53.516;49.424;2022-10-31T11:11:25;5.07;;;1.27;;
67546;SDS011;54381;53.516;49.424;2022-10-31T11:14:05;10.70;;;2.58;;
67546;SDS011;54381;53.516;49.424;2022-10-31T11:16:40;4.28;;;1.17;;
67546;SDS011;54381;53.516;49.424;2022-10-31T11:21:37;7.03;;;1.13;;
67546;SDS011;54381;53.516;49.424;2022-10-31T11:26:39;10.10;;;1.67;;
67546;SDS011;54381;53.516;49.424;2022-10-31T11:29:14;4.45;;;0.90;;
67546;SDS011;54381;53.516;49.424;2022-10-31T11:31:47;3.05;;;1.23;;
67546;SDS011;54381;53.516;49.424;2022-10-31T11:34:21;4.22;;;0.75;;
67546;SDS011;54381;53.516;49.424;2022-10-31T11:37:09;62.97;;;2.50;;
67546;SDS011;54381;53.516;49.424;2022-10-31T11:39:53;3.72;;;0.95;;
67546;SDS011;54381;53.516;49.424;2022-10-31T11:42:25;5.32;;;0.80;;
67546;SDS011;54381;53.516;49.424;2022-10-31T11:44:53;7.43;;;1.27;;
67546;SDS011;54381;53.516;49.424;2022-10-31T11:47:25;6.18;;;1.20;;
67546;SDS011;54381;53.516;49.424;2022-10-31T11:49:56;2.38;;;0.77;;
67546;SDS011;54381;53.516;49.424;2022-10-31T11:52:27;8.52;;;1.17;;
67546;SDS011;54381;53.516;49.424;2022-10-31T11:55:00;4.95;;;1.05;;
67546;SDS011;54381;53.516;49.424;2022-10-31T11:57:43;13.90;;;2.25;;
67546;SDS011;54381;53.516;49.424;2022-10-31T12:00:24;21.95;;;1.88;;
67546;SDS011;54381;53.516;49.424;2022-10-31T12:03:04;7.03;;;1.13;;
67546;SDS011;54381;53.516;49.424;2022-10-31T12:05:32;7.25;;;1.52;;
67546;SDS011;54381;53.516;49.424;2022-10-31T12:07:59;11.43;;;2.17;;
67546;SDS011;54381;53.516;49.424;2022-10-31T12:10:28;14.18;;;2.67;;
67546;SDS011;54381;53.516;49.424;2022-10-31T12:16:00;17.83;;;1.52;;
67546;SDS011;54381;53.516;49.424;2022-10-31T12:24:28;7.13;;;1.40;;
67546;SDS011;54381;53.516;49.424;2022-10-31T12:30:15;26.55;;;2.17;;
67546;SDS011;54381;53.516;49.424;2022-10-31T12:43:56;16.52;;;1.35;;
67546;SDS011;54381;53.516;49.424;2022-10-31T12:52:42;16.45;;;2.13;;
67546;SDS011;54381;53.516;49.424;2022-10-31T12:58:17;12.00;;;4.30;;
67546;SDS011;54381;53.516;49.424;2022-10-31T13:00:48;9.90;;;1.63;;
67546;SDS011;54381;53.516;49.424;2022-10-31T13:03:27;16.57;;;4.93;;
67546;SDS011;54381;53.516;49.424;2022-10-31T13:08:38;16.95;;;3.38;;
67546;SDS011;54381;53.516;49.424;2022-10-31T13:11:15;4.78;;;1.95;;
67546;SDS011;54381;53.516;49.424;2022-10-31T13:13:57;9.45;;;2.50;;
67546;SDS011;54381;53.516;49.424;2022-10-31T13:16:51;11.13;;;2.03;;
67546;SDS011;54381;53.516;49.424;2022-10-31T13:19:22;7.25;;;1.65;;
67546;SDS011;54381;53.516;49.424;2022-10-31T13:22:10;22.90;;;2.60;;
67546;SDS011;54381;53.516;49.424;2022-10-31T13:24:43;6.15;;;1.55;;
67546;SDS011;54381;53.516;49.424;2022-10-31T13:27:26;13.02;;;2.47;;
67546;SDS011;54381;53.516;49.424;2022-10-31T13:32:48;6.45;;;4.10;;
67546;SDS011;54381;53.516;49.424;2022-10-31T13:46:53;12.85;;;2.05;;
67546;SDS011;54381;53.516;49.424;2022-10-31T13:54:51;3.92;;;1.55;;
67546;SDS011;54381;53.516;49.424;2022-10-31T13:57:24;6.07;;;1.90;;
67546;SDS011;54381;53.516;49.424;2022-10-31T13:59:53;12.52;;;1.83;;
67546;SDS011;54381;53.516;49.424;2022-10-31T14:02:26;14.05;;;1.90;;
67546;SDS011;54381;53.516;49.424;2022-10-31T14:04:56;10.27;;;1.75;;
67546;SDS011;54381;53.516;49.424;2022-10-31T14:07:28;9.77;;;1.95;;
67546;SDS011;54381;53.516;49.424;2022-10-31T14:09:57;10.48;;;1.77;;
67546;SDS011;54381;53.516;49.424;2022-10-31T14:12:31;7.95;;;2.47;;
67546;SDS011;54381;53.516;49.424;2022-10-31T14:15:20;24.63;;;2.05;;
67546;SDS011;54381;53.516;49.424;2022-10-31T14:22:48;11.20;;;1.92;;
67546;SDS011;54381;53.516;49.424;2022-10-31T14:27:55;8.80;;;2.38;;
67546;SDS011;54381;53.516;49.424;2022-10-31T14:30:23;23.38;;;2.72;;
67546;SDS011;54381;53.516;49.424;2022-10-31T14:32:52;10.35;;;3.05;;
67546;SDS011;54381;53.516;49.424;2022-10-31T14:35:50;16.52;;;3.42;;
67546;SDS011;54381;53.516;49.424;2022-10-31T14:41:40;10.20;;;2.30;;
67546;SDS011;54381;53.516;49.424;2022-10-31T14:47:26;14.82;;;2.15;;
67546;SDS011;54381;53.516;49.424;2022-10-31T14:52:37;10.68;;;2.40;;
67546;SDS011;54381;53.516;49.424;2022-10-31T14:55:05;11.88;;;2.80;;
67546;SDS011;54381;53.516;49.424;2022-10-31T14:57:37;13.85;;;3.42;;
67546;SDS011;54381;53.516;49.424;2022-10-31T15:00:14;11.18;;;2.78;;
67546;SDS011;54381;53.516;49.424;2022-10-31T15:05:56;22.95;;;5.85;;
67546;SDS011;54381;53.516;49.424;2022-10-31T15:08:37;17.83;;;3.22;;
67546;SDS011;54381;53.516;49.424;2022-10-31T15:13:49;28.77;;;2.60;;
67546;SDS011;54381;53.516;49.424;2022-10-31T15:16:24;11.30;;;2.40;;
67546;SDS011;54381;53.516;49.424;2022-10-31T15:21:20;16.80;;;4.18;;
67546;SDS011;54381;53.516;49.424;2022-10-31T15:23:49;12.10;;;2.58;;
67546;SDS011;54381;53.516;49.424;2022-10-31T15:26:19;11.82;;;2.17;;
67546;SDS011;54381;53.516;49.424;2022-10-31T15:28:57;8.60;;;2.38;;
67546;SDS011;54381;53.516;49.424;2022-10-31T15:31:25;16.70;;;2.42;;
67546;SDS011;54381;53.516;49.424;2022-10-31T15:33:51;16.77;;;7.35;;
67546;SDS011;54381;53.516;49.424;2022-10-31T15:36:21;11.82;;;2.92;;
67546;SDS011;54381;53.516;49.424;2022-10-31T15:38:48;4.90;;;1.92;;
67546;SDS011;54381;53.516;49.424;2022-10-31T15:44:10;7.03;;;1.73;;
67546;SDS011;54381;53.516;49.424;2022-10-31T15:46:40;9.20;;;1.90;;
67546;SDS011;54381;53.516;49.424;2022-10-31T15:49:29;11.10;;;1.90;;
67546;SDS011;54381;53.516;49.424;2022-10-31T15:51:57;12.52;;;1.90;;
67546;SDS011;54381;53.516;49.424;2022-10-31T15:54:28;9.55;;;1.90;;
67546;SDS011;54381;53.516;49.424;2022-10-31T15:56:54;13.77;;;2.17;;
67546;SDS011;54381;53.516;49.424;2022-10-31T15:59:21;17.08;;;2.65;;
67546;SDS011;54381;53.516;49.424;2022-10-31T16:01:58;11.60;;;2.20;;
67546;SDS011;54381;53.516;49.424;2022-10-31T16:04:26;10.73;;;1.73;;
67546;SDS011;54381;53.516;49.424;2022-10-31T16:06:59;15.63;;;1.98;;
67546;SDS011;54381;53.516;49.424;2022-10-31T16:09:28;7.78;;;1.42;;
67546;SDS011;54381;53.516;49.424;2022-10-31T16:11:55;12.85;;;1.90;;
67546;SDS011;54381;53.516;49.424;2022-10-31T16:14:24;14.25;;;2.22;;
67546;SDS011;54381;53.516;49.424;2022-10-31T16:16:53;29.85;;;2.55;;
67546;SDS011;54381;53.516;49.424;2022-10-31T16:21:54;4.13;;;1.50;;
67546;SDS011;54381;53.516;49.424;2022-10-31T16:24:35;8.18;;;1.77;;
67546;SDS011;54381;53.516;49.424;2022-10-31T16:27:17;9.60;;;1.65;;
67546;SDS011;54381;53.516;49.424;2022-10-31T16:29:50;4.30;;;1.58;;
67546;SDS011;54381;53.516;49.424;2022-10-31T16:32:27;5.18;;;1.80;;
67546;SDS011;54381;53.516;49.424;2022-10-31T16:35:12;6.30;;;1.55;;
67546;SDS011;54381;53.516;49.424;2022-10-31T16:37:58;4.90;;;1.30;;
67546;SDS011;54381;53.516;49.424;2022-10-31T16:40:24;15.57;;;1.77;;
67546;SDS011;54381;53.516;49.424;2022-10-31T16:42:51;6.30;;;1.73;;
67546;SDS011;54381;53.516;49.424;2022-10-31T16:45:20;25.85;;;2.30;;
67546;SDS011;54381;53.516;49.424;2022-10-31T16:47:48;21.40;;;2.47;;
67546;SDS011;54381;53.516;49.424;2022-10-31T16:50:17;22.13;;;2.20;;
67546;SDS011;54381;53.516;49.424;2022-10-31T16:52:48;15.80;;;2.45;;
67546;SDS011;54381;53.516;49.424;2022-10-31T16:55:15;6.72;;;2.50;;
67546;SDS011;54381;53.516;49.424;2022-10-31T16:57:45;28.83;;;2.70;;
67546;SDS011;54381;53.516;49.424;2022-10-31T17:00:21;12.15;;;2.92;;
67546;SDS011;54381;53.516;49.424;2022-10-31T17:02:50;28.38;;;3.20;;
67546;SDS011;54381;53.516;49.424;2022-10-31T17:05:17;13.55;;;3.50;;
67546;SDS011;54381;53.516;49.424;2022-10-31T17:07:45;15.75;;;3.13;;
67546;SDS011;54381;53.516;49.424;2022-10-31T17:10:12;8.77;;;3.33;;
67546;SDS011;54381;53.516;49.424;2022-10-31T17:12:40;7.70;;;2.95;;
67546;SDS011;54381;53.516;49.424;2022-10-31T17:15:14;8.48;;;2.58;;
67546;SDS011;54381;53.516;49.424;2022-10-31T17:17:50;13.95;;;2.83;;
67546;SDS011;54381;53.516;49.424;2022-10-31T17:20:27;6.53;;;2.80;;
67546;SDS011;54381;53.516;49.424;2022-10-31T17:22:55;8.73;;;3.13;;
67546;SDS011;54381;53.516;49.424;2022-10-31T17:25:24;9.10;;;2.45;;
67546;SDS011;54381;53.516;49.424;2022-10-31T17:27:52;9.52;;;2.67;;
67546;SDS011;54381;53.516;49.424;2022-10-31T17:30:19;6.05;;;2.15;;
67546;SDS011;54381;53.516;49.424;2022-10-31T17:32:47;17.67;;;2.38;;
67546;SDS011;54381;53.516;49.424;2022-10-31T17:35:14;12.70;;;2.65;;
67546;SDS011;54381;53.516;49.424;2022-10-31T17:37:41;11.93;;;2.75;;
67546;SDS011;54381;53.516;49.424;2022-10-31T17:40:09;7.63;;;2.47;;
67546;SDS011;54381;53.516;49.424;2022-10-31T17:42:36;16.83;;;2.80;;
67546;SDS011;54381;53.516;49.424;2022-10-31T17:45:04;7.93;;;2.72;;
67546;SDS011;54381;53.516;49.424;2022-10-31T17:47:31;104.47;;;4.43;;
67546;SDS011;54381;53.516;49.424;2022-10-31T17:49:57;11.00;;;2.90;;
67546;SDS011;54381;53.516;49.424;2022-10-31T17:52:24;9.43;;;2.28;;
67546;SDS011;54381;53.516;49.424;2022-10-31T17:54:50;19.75;;;2.25;;
67546;SDS011;54381;53.516;49.424;2022-10-31T17:57:16;12.48;;;2.65;;
67546;SDS011;54381;53.516;49.424;2022-10-31T17:59:42;21.83;;;2.55;;
67546;SDS011;54381;53.516;49.424;2022-10-31T18:02:11;11.13;;;2.53;;
67546;SDS011;54381;53.516;49.424;2022-10-31T18:04:37;10.95;;;2.40;;
67546;SDS011;54381;53.516;49.424;2022-10-31T18:09:50;20.38;;;2.80;;
67546;SDS011;54381;53.516;49.424;2022-10-31T18:15:19;9.35;;;2.75;;
67546;SDS011;54381;53.516;49.424;2022-10-31T18:17:45;16.50;;;3.88;;
67546;SDS011;54381;53.516;49.424;2022-10-31T18:20:11;7.45;;;3.45;;
67546;SDS011;54381;53.516;49.424;2022-10-31T18:22:38;11.95;;;2.80;;
67546;SDS011;54381;53.516;49.424;2022-10-31T18:25:04;26.23;;;5.65;;